Erskine, Minnesota
Current Conditions -  °F | °C
As of 1:15 AM on Saturday 20 Dec 2014 (Local Time) from KFSE Reporting Station
Haze Haze  
Wind Chill: 20°   Ceiling: 400
Heat Index: 28°   Visibility: 2mi
Dew Point: 27°   Wind: 9mph
Humidity: 93%   Direction: 180°S
Pressure: 30.01"   Gusts: NA
Location:  47.67°N, 96.01°W
Report Text: KFSE 200715Z AUTO 18008KT 2SM BR OVC004 M02/M03 A3001 RMK AO2
Loading
Personal Weather Stations






























Interactive Weather Map New forecast layout! Learn more

10-Day Weather Forecast

Advertisements
Track Severe Weather on mobile